createdAt,value
2024-02-05T00:00:55.088Z,23.83
2024-02-05T00:01:55.038Z,23.83
2024-02-05T00:02:55.026Z,23.83
2024-02-05T00:03:55.067Z,23.82
2024-02-05T00:04:55.122Z,23.83
2024-02-05T00:05:55.187Z,23.83
2024-02-05T00:06:55.596Z,23.82
2024-02-05T00:07:58.712Z,23.83
2024-02-05T00:08:55.243Z,23.82
2024-02-05T00:09:55.309Z,23.83
2024-02-05T00:10:55.247Z,23.84
2024-02-05T00:11:55.261Z,23.85
2024-02-05T00:12:55.261Z,23.85
2024-02-05T00:13:55.285Z,23.86
2024-02-05T00:14:55.253Z,23.88
2024-02-05T00:15:55.299Z,23.90
2024-02-05T00:16:55.238Z,23.90
2024-02-05T00:17:55.266Z,23.92
2024-02-05T00:18:55.303Z,23.93
2024-02-05T00:19:55.328Z,23.96
2024-02-05T00:20:55.282Z,23.97
2024-02-05T00:21:55.255Z,23.98
2024-02-05T00:22:55.307Z,23.99
2024-02-05T00:23:55.248Z,24.00
2024-02-05T00:24:55.306Z,24.02
2024-02-05T00:25:55.268Z,24.04
2024-02-05T00:26:55.267Z,24.05
2024-02-05T00:27:55.294Z,24.06
2024-02-05T00:28:55.247Z,24.08
2024-02-05T00:29:55.280Z,24.09
2024-02-05T00:30:55.319Z,24.11
2024-02-05T00:31:55.263Z,24.12
2024-02-05T00:32:55.296Z,24.14
2024-02-05T00:33:55.329Z,24.15
2024-02-05T00:34:55.334Z,24.16
2024-02-05T00:35:55.278Z,24.18
2024-02-05T00:36:55.321Z,24.19
2024-02-05T00:37:55.266Z,24.21
2024-02-05T00:38:55.270Z,24.22
2024-02-05T00:39:55.303Z,24.24
2024-02-05T00:40:55.267Z,24.24
2024-02-05T00:41:55.311Z,24.26
2024-02-05T00:42:55.349Z,24.28
2024-02-05T00:43:55.292Z,24.29
2024-02-05T00:44:55.287Z,24.30
2024-02-05T00:45:55.328Z,24.31
2024-02-05T00:46:55.287Z,24.32
2024-02-05T00:47:55.335Z,24.34
2024-02-05T00:48:55.341Z,24.35
2024-02-05T00:49:55.369Z,24.35
2024-02-05T00:50:55.275Z,24.37
2024-02-05T00:51:55.332Z,24.38
2024-02-05T00:52:55.304Z,24.40
2024-02-05T00:53:55.275Z,24.41
2024-02-05T00:54:55.311Z,24.42
2024-02-05T00:55:55.307Z,24.43
2024-02-05T00:56:55.300Z,24.45
2024-02-05T00:57:55.372Z,24.46
2024-02-05T00:58:55.303Z,24.46
2024-02-05T00:59:55.309Z,24.47
2024-02-05T01:00:55.333Z,24.47
2024-02-05T01:01:55.425Z,24.48
2024-02-05T01:02:55.296Z,24.49
2024-02-05T01:03:55.424Z,24.50
2024-02-05T01:04:55.444Z,24.51
2024-02-05T01:05:59.067Z,24.52
2024-02-05T01:06:55.538Z,24.52
2024-02-05T01:07:55.387Z,24.53
2024-02-05T01:08:55.338Z,24.55
2024-02-05T01:09:55.361Z,24.56
2024-02-05T01:10:55.358Z,24.56
2024-02-05T01:11:55.348Z,24.57
2024-02-05T01:12:55.410Z,24.58
2024-02-05T01:13:55.341Z,24.60
2024-02-05T01:14:55.331Z,24.60
2024-02-05T01:15:55.393Z,24.61
2024-02-05T01:16:55.363Z,24.62
2024-02-05T01:17:55.398Z,24.63
2024-02-05T01:18:55.456Z,24.64
2024-02-05T01:19:55.479Z,24.65
2024-02-05T01:20:55.356Z,24.65
2024-02-05T01:21:55.456Z,24.65
2024-02-05T01:22:55.391Z,24.65
2024-02-05T01:23:55.420Z,24.66
2024-02-05T01:24:55.402Z,24.67
2024-02-05T01:25:55.354Z,24.67
2024-02-05T01:26:55.405Z,24.67
2024-02-05T01:27:55.401Z,24.68
2024-02-05T01:28:55.383Z,24.69
2024-02-05T01:29:55.409Z,24.70
2024-02-05T01:30:55.429Z,24.69
2024-02-05T01:31:55.377Z,24.69
2024-02-05T01:32:55.407Z,24.70
2024-02-05T01:33:55.455Z,24.70
2024-02-05T01:34:55.465Z,24.72
2024-02-05T01:35:55.376Z,24.72
2024-02-05T01:36:55.410Z,24.73
2024-02-05T01:37:55.372Z,24.73
2024-02-05T01:38:55.401Z,24.74
2024-02-05T01:39:55.507Z,24.75
2024-02-05T01:40:55.486Z,24.75
2024-02-05T01:41:55.553Z,24.75
2024-02-05T01:42:55.680Z,24.76
2024-02-05T01:43:55.671Z,24.77
2024-02-05T01:44:55.719Z,24.76
2024-02-05T01:45:55.852Z,24.77
2024-02-05T01:46:55.830Z,24.77
2024-02-05T01:47:55.912Z,24.77
2024-02-05T01:48:55.999Z,24.78
2024-02-05T01:49:56.926Z,24.79
2024-02-05T01:50:56.046Z,24.79
2024-02-05T01:51:56.096Z,24.80
2024-02-05T01:52:56.108Z,24.81
2024-02-05T01:53:56.138Z,24.81
2024-02-05T01:54:56.226Z,24.82
2024-02-05T01:55:56.244Z,24.83
2024-02-05T01:56:56.304Z,24.83
2024-02-05T01:57:56.358Z,24.83
2024-02-05T01:58:56.394Z,24.84
2024-02-05T01:59:56.419Z,24.84
2024-02-05T02:00:56.583Z,24.84
2024-02-05T02:01:56.594Z,24.85
2024-02-05T02:02:56.557Z,24.84
2024-02-05T02:03:56.695Z,24.85
2024-02-05T02:04:56.827Z,24.86
2024-02-05T02:05:56.793Z,24.85
2024-02-05T02:06:56.860Z,24.85
2024-02-05T02:07:56.851Z,24.86
2024-02-05T02:08:56.881Z,24.86
2024-02-05T02:09:56.966Z,24.88
2024-02-05T02:10:56.964Z,24.88
2024-02-05T02:11:56.984Z,24.88
2024-02-05T02:12:57.083Z,24.88
2024-02-05T02:13:57.081Z,24.89
2024-02-05T02:14:57.129Z,24.89
2024-02-05T02:15:57.225Z,24.91
2024-02-05T02:16:57.244Z,24.91
2024-02-05T02:17:57.302Z,24.91
2024-02-05T02:18:57.362Z,24.91
2024-02-05T02:19:57.453Z,24.92
2024-02-05T02:20:57.397Z,24.93
2024-02-05T02:21:57.548Z,24.93
2024-02-05T02:22:57.471Z,24.94
2024-02-05T02:23:57.519Z,24.93
2024-02-05T02:24:57.589Z,24.94
2024-02-05T02:25:57.632Z,24.95
2024-02-05T02:26:57.658Z,24.95
2024-02-05T02:27:57.736Z,24.95
2024-02-05T02:28:57.724Z,24.95
2024-02-05T02:29:57.769Z,24.95
2024-02-05T02:30:57.935Z,24.97
2024-02-05T02:31:57.847Z,24.97
2024-02-05T02:32:57.997Z,24.98
2024-02-05T02:33:58.069Z,24.98
2024-02-05T02:34:58.052Z,24.99
2024-02-05T02:35:58.054Z,24.98
2024-02-05T02:36:58.126Z,24.97
2024-02-05T02:37:58.169Z,24.98
2024-02-05T02:38:58.128Z,24.98
2024-02-05T02:39:58.216Z,24.98
2024-02-05T02:40:58.224Z,24.98
2024-02-05T02:41:58.285Z,24.99
2024-02-05T02:42:58.376Z,25.00
2024-02-05T02:43:58.370Z,25.00
2024-02-05T02:44:58.410Z,25.01
2024-02-05T02:45:58.511Z,25.01
2024-02-05T02:46:58.511Z,25.01
2024-02-05T02:47:58.582Z,25.01
2024-02-05T02:48:58.661Z,25.02
2024-02-05T02:49:58.706Z,25.01
2024-02-05T02:50:58.672Z,25.02
2024-02-05T02:51:58.751Z,25.02
2024-02-05T02:52:58.820Z,25.01
2024-02-05T02:53:58.826Z,25.02
2024-02-05T02:54:59.126Z,25.02
2024-02-05T02:55:59.362Z,25.02
2024-02-05T02:56:58.921Z,25.03
2024-02-05T02:57:58.918Z,25.03
2024-02-05T02:58:58.933Z,25.04
2024-02-05T02:59:58.970Z,25.04
2024-02-05T03:00:59.068Z,25.04
2024-02-05T03:01:59.223Z,25.05
2024-02-05T03:02:59.127Z,25.05
2024-02-05T03:03:59.251Z,25.06
2024-02-05T03:04:59.215Z,25.06
2024-02-05T03:05:59.196Z,25.06
2024-02-05T03:06:59.238Z,25.06
2024-02-05T03:07:59.284Z,25.05
2024-02-05T03:08:59.321Z,25.06
2024-02-05T03:09:59.342Z,25.06
2024-02-05T03:10:59.383Z,25.06
2024-02-05T03:11:59.454Z,25.06
2024-02-05T03:12:59.531Z,25.06
2024-02-05T03:13:59.507Z,25.05
2024-02-05T03:14:59.538Z,25.05
2024-02-05T03:15:59.627Z,25.05
2024-02-05T03:16:59.603Z,25.05
2024-02-05T03:17:59.679Z,25.05
2024-02-05T03:18:59.741Z,25.05
2024-02-05T03:19:59.915Z,25.04
2024-02-05T03:20:59.785Z,25.05
2024-02-05T03:21:59.885Z,25.05
2024-02-05T03:23:08.099Z,25.05
2024-02-05T03:24:00.888Z,25.04
2024-02-05T03:24:59.944Z,25.05
2024-02-05T03:25:59.863Z,25.04
2024-02-05T03:26:59.940Z,25.05
2024-02-05T03:27:59.946Z,25.04
2024-02-05T03:28:59.880Z,25.05
2024-02-05T03:29:59.883Z,25.05
2024-02-05T03:31:00.022Z,25.04
2024-02-05T03:31:59.938Z,25.04
2024-02-05T03:32:59.916Z,25.04
2024-02-05T03:33:59.956Z,25.04
2024-02-05T03:34:59.981Z,25.03
2024-02-05T03:35:59.888Z,25.04
2024-02-05T03:36:59.987Z,25.04
2024-02-05T03:38:00.017Z,25.03
2024-02-05T03:39:00.050Z,25.04
2024-02-05T03:40:00.226Z,25.03
2024-02-05T03:41:00.108Z,25.03
2024-02-05T03:42:00.115Z,25.03
2024-02-05T03:43:00.162Z,25.03
2024-02-05T03:44:00.184Z,25.02
2024-02-05T03:45:00.199Z,25.02
2024-02-05T03:46:00.279Z,25.02
2024-02-05T03:47:00.305Z,25.02
2024-02-05T03:48:00.373Z,25.02
2024-02-05T03:49:00.474Z,25.02
2024-02-05T03:50:00.531Z,25.01
2024-02-05T03:51:00.458Z,25.01
2024-02-05T03:52:00.485Z,25.01
2024-02-05T03:53:00.525Z,25.01
2024-02-05T03:54:00.557Z,25.01
2024-02-05T03:55:00.686Z,25.01
2024-02-05T03:56:00.653Z,25.01
2024-02-05T03:57:00.661Z,25.01
2024-02-05T03:58:00.856Z,25.01
2024-02-05T03:59:00.783Z,25.01
2024-02-05T04:00:00.778Z,25.01
2024-02-05T04:01:00.892Z,25.01
2024-02-05T04:02:00.912Z,25.01
2024-02-05T04:03:00.995Z,25.02
2024-02-05T04:04:01.128Z,25.01
2024-02-05T04:05:01.017Z,25.01
2024-02-05T04:06:01.046Z,25.00
2024-02-05T04:07:01.047Z,25.00
2024-02-05T04:08:01.098Z,25.00
2024-02-05T04:09:01.113Z,24.99
2024-02-05T04:10:01.224Z,24.99
2024-02-05T04:11:01.189Z,24.98
2024-02-05T04:12:01.243Z,24.98
2024-02-05T04:13:01.325Z,24.97
2024-02-05T04:14:01.335Z,24.96
2024-02-05T04:15:01.394Z,24.96
2024-02-05T04:16:01.559Z,24.95
2024-02-05T04:17:01.468Z,24.95
2024-02-05T04:18:01.585Z,24.95
2024-02-05T04:19:01.636Z,24.95
2024-02-05T04:20:01.672Z,24.94
2024-02-05T04:21:08.897Z,24.92
2024-02-05T04:22:08.880Z,24.93
2024-02-05T04:23:08.830Z,24.93
2024-02-05T04:24:08.832Z,24.92
2024-02-05T04:25:08.853Z,24.91
2024-02-05T04:26:08.842Z,24.91
2024-02-05T04:27:08.849Z,24.90
2024-02-05T04:28:08.966Z,24.91
2024-02-05T04:29:08.808Z,24.91
2024-02-05T04:30:08.827Z,24.90
2024-02-05T04:31:16.094Z,24.87
2024-02-05T04:32:16.005Z,24.88
2024-02-05T04:33:16.041Z,24.88
2024-02-05T04:34:16.083Z,24.88
2024-02-05T04:35:16.109Z,24.88
2024-02-05T04:36:16.026Z,24.88
2024-02-05T04:37:16.139Z,24.87
2024-02-05T04:38:15.998Z,24.87
2024-02-05T04:39:16.017Z,24.86
2024-02-05T04:40:16.098Z,24.87
2024-02-05T04:41:16.076Z,24.86
2024-02-05T04:42:16.043Z,24.86
2024-02-05T04:43:16.057Z,24.86
2024-02-05T04:44:16.032Z,24.86
2024-02-05T04:45:16.026Z,24.86
2024-02-05T04:46:16.112Z,24.85
2024-02-05T04:47:16.035Z,24.86
2024-02-05T04:48:16.023Z,24.86
2024-02-05T04:49:16.061Z,24.87
2024-02-05T04:50:16.104Z,24.87
2024-02-05T04:51:16.042Z,24.87
2024-02-05T04:52:16.108Z,24.87
2024-02-05T04:53:16.045Z,24.86
2024-02-05T04:54:16.016Z,24.87
2024-02-05T04:55:16.148Z,24.86
2024-02-05T04:56:16.026Z,24.86
2024-02-05T04:57:16.047Z,24.86
2024-02-05T04:58:16.098Z,24.87
2024-02-05T04:59:16.054Z,24.86
2024-02-05T05:00:16.043Z,24.87
2024-02-05T05:01:16.105Z,24.88
2024-02-05T05:02:16.124Z,24.86
2024-02-05T05:03:16.053Z,24.87
2024-02-05T05:04:16.171Z,24.87
2024-02-05T05:05:16.217Z,24.87
2024-02-05T05:06:16.264Z,24.87
2024-02-05T05:07:16.397Z,24.87
2024-02-05T05:08:16.242Z,24.88
2024-02-05T05:09:16.286Z,24.87
2024-02-05T05:10:16.371Z,24.87
2024-02-05T05:11:16.394Z,24.87
2024-02-05T05:12:16.428Z,24.88
2024-02-05T05:13:16.499Z,24.88
2024-02-05T05:14:16.502Z,24.88
2024-02-05T05:15:16.549Z,24.88
2024-02-05T05:16:16.700Z,24.87
2024-02-05T05:17:16.603Z,24.88
2024-02-05T05:18:16.770Z,24.88
2024-02-05T05:19:16.879Z,24.88
2024-02-05T05:20:16.789Z,24.88
2024-02-05T05:21:16.798Z,24.88
2024-02-05T05:22:16.996Z,24.89
2024-02-05T05:23:16.923Z,24.88
2024-02-05T05:24:16.983Z,24.88
2024-02-05T05:25:17.097Z,24.88
2024-02-05T05:26:17.069Z,24.88
2024-02-05T05:27:17.100Z,24.88
2024-02-05T05:28:17.222Z,24.88
2024-02-05T05:29:17.210Z,24.88
2024-02-05T05:30:17.219Z,24.88
2024-02-05T05:31:17.278Z,24.88
2024-02-05T05:32:17.336Z,24.88
2024-02-05T05:33:17.371Z,24.88
2024-02-05T05:34:17.492Z,24.88
2024-02-05T05:35:17.472Z,24.89
2024-02-05T05:36:17.484Z,24.88
2024-02-05T05:37:17.784Z,24.88
2024-02-05T05:38:17.610Z,24.88
2024-02-05T05:39:17.595Z,24.88
2024-02-05T05:40:17.681Z,24.88
2024-02-05T05:41:17.676Z,24.88
2024-02-05T05:42:17.720Z,24.88
2024-02-05T05:43:17.879Z,24.87
2024-02-05T05:44:17.842Z,24.88
2024-02-05T05:45:17.868Z,24.88
2024-02-05T05:46:18.073Z,24.88
2024-02-05T05:47:17.998Z,24.88
2024-02-05T05:48:18.071Z,24.88
2024-02-05T05:49:18.183Z,24.88
2024-02-05T05:50:18.228Z,24.88
2024-02-05T05:51:18.156Z,24.88
2024-02-05T05:52:18.248Z,24.88
2024-02-05T05:53:18.248Z,24.88
2024-02-05T05:54:18.312Z,24.88
2024-02-05T05:55:18.369Z,24.88
2024-02-05T05:56:18.418Z,24.88
2024-02-05T05:57:18.430Z,24.88
2024-02-05T05:58:18.549Z,24.89
2024-02-05T05:59:18.584Z,24.88
2024-02-05T06:00:18.609Z,24.88
2024-02-05T06:01:41.211Z,24.88
2024-02-05T06:02:18.678Z,24.84
2024-02-05T06:03:18.630Z,24.86
2024-02-05T06:04:18.816Z,24.86
2024-02-05T06:05:18.737Z,24.88
2024-02-05T06:06:18.676Z,24.87
2024-02-05T06:07:18.682Z,24.87
2024-02-05T06:08:18.700Z,24.87
2024-02-05T06:09:18.660Z,24.87
2024-02-05T06:10:18.757Z,24.88
2024-02-05T06:11:18.672Z,24.88
2024-02-05T06:12:18.696Z,24.88
2024-02-05T06:13:18.790Z,24.88
2024-02-05T06:14:18.728Z,24.88
2024-02-05T06:15:18.691Z,24.88
2024-02-05T06:16:18.722Z,24.88
2024-02-05T06:17:18.639Z,24.87
2024-02-05T06:18:18.704Z,24.88
2024-02-05T06:19:18.709Z,24.88
2024-02-05T06:20:18.932Z,24.88
2024-02-05T06:21:18.724Z,24.88
2024-02-05T06:22:18.934Z,24.88
2024-02-05T06:23:18.768Z,24.88
2024-02-05T06:24:18.831Z,24.88
2024-02-05T06:25:18.870Z,24.88
2024-02-05T06:26:18.888Z,24.88
2024-02-05T06:27:18.946Z,24.88
2024-02-05T06:28:19.051Z,24.88
2024-02-05T06:29:19.082Z,24.88
2024-02-05T06:30:19.090Z,24.88
2024-02-05T06:31:19.219Z,24.88
2024-02-05T06:32:19.187Z,24.88
2024-02-05T06:33:19.349Z,24.66
2024-02-05T06:34:19.752Z,23.99
2024-02-05T06:35:19.434Z,23.36
2024-02-05T06:36:19.402Z,22.96
2024-02-05T06:37:19.469Z,22.58
2024-02-05T06:38:19.474Z,22.06
2024-02-05T06:39:19.712Z,21.42
2024-02-05T06:40:20.742Z,20.94
2024-02-05T06:41:19.564Z,20.55
2024-02-05T06:42:19.617Z,20.50
2024-02-05T06:43:20.342Z,20.56
2024-02-05T06:44:21.345Z,20.51
2024-02-05T06:45:19.790Z,20.39
2024-02-05T06:46:45.398Z,20.15
2024-02-05T06:47:19.782Z,20.16
2024-02-05T06:48:19.893Z,20.48
2024-02-05T06:49:19.909Z,20.80
2024-02-05T06:50:19.796Z,21.11
2024-02-05T06:51:19.801Z,21.38
2024-02-05T06:52:20.130Z,21.62
2024-02-05T06:53:19.834Z,21.84
2024-02-05T06:54:19.798Z,22.07
2024-02-05T06:55:19.848Z,22.29
2024-02-05T06:56:19.792Z,22.47
2024-02-05T06:57:19.802Z,22.66
2024-02-05T06:58:19.845Z,22.83
2024-02-05T06:59:19.816Z,22.98
2024-02-05T07:00:19.786Z,23.13
2024-02-05T07:01:19.841Z,23.25
2024-02-05T07:02:20.722Z,23.38
2024-02-05T07:03:19.810Z,23.50
2024-02-05T07:04:20.109Z,23.62
2024-02-05T07:05:19.893Z,23.72
2024-02-05T07:06:19.827Z,23.82
2024-02-05T07:07:19.848Z,23.92
2024-02-05T07:08:19.839Z,24.01
2024-02-05T07:09:19.844Z,24.08
2024-02-05T07:10:20.677Z,24.15
2024-02-05T07:11:19.859Z,24.22
2024-02-05T07:12:19.863Z,24.30
2024-02-05T07:13:20.200Z,24.38
2024-02-05T07:14:20.288Z,24.44
2024-02-05T07:15:20.022Z,24.50
2024-02-05T07:16:20.145Z,24.55
2024-02-05T07:17:20.096Z,24.60
2024-02-05T07:18:20.331Z,24.64
2024-02-05T07:19:20.251Z,24.67
2024-02-05T07:20:20.311Z,24.69
2024-02-05T07:21:20.351Z,24.71
2024-02-05T07:22:20.401Z,24.73
2024-02-05T07:23:20.385Z,24.74
2024-02-05T07:24:20.468Z,24.75
2024-02-05T07:25:20.714Z,24.75
2024-02-05T07:26:20.502Z,24.76
2024-02-05T07:27:20.505Z,24.77
2024-02-05T07:28:20.639Z,24.77
2024-02-05T07:29:20.636Z,24.81
2024-02-05T07:30:20.709Z,24.83
2024-02-05T07:31:20.881Z,24.85
2024-02-05T07:32:20.752Z,24.87
2024-02-05T07:33:20.832Z,24.88
2024-02-05T07:34:20.873Z,24.89
2024-02-05T07:35:20.908Z,24.90
2024-02-05T07:36:20.905Z,24.91
2024-02-05T07:37:21.086Z,24.92
2024-02-05T07:38:21.053Z,24.85
2024-02-05T07:39:21.281Z,24.52
2024-02-05T07:40:21.111Z,23.65
2024-02-05T07:41:21.046Z,22.94
2024-02-05T07:42:21.102Z,22.81
2024-02-05T07:43:21.280Z,22.86
2024-02-05T07:44:21.221Z,22.96
2024-02-05T07:45:21.748Z,23.06
2024-02-05T07:46:21.346Z,23.19
2024-02-05T07:47:22.293Z,23.32
2024-02-05T07:48:21.564Z,23.44
2024-02-05T07:49:21.606Z,23.59
2024-02-05T07:50:21.430Z,23.70
2024-02-05T07:51:22.100Z,23.84
2024-02-05T07:52:21.609Z,23.97
2024-02-05T07:53:21.584Z,24.09
2024-02-05T07:54:21.628Z,24.20
2024-02-05T07:55:21.660Z,24.30
2024-02-05T07:56:21.625Z,24.38
2024-02-05T07:57:21.673Z,24.44
2024-02-05T07:58:21.793Z,24.50
2024-02-05T07:59:21.719Z,24.56
2024-02-05T08:00:21.770Z,24.62
2024-02-05T08:01:21.837Z,24.67
2024-02-05T08:02:21.873Z,24.71
2024-02-05T08:03:21.942Z,24.74
2024-02-05T08:04:22.019Z,24.80
2024-02-05T08:05:22.326Z,24.83
2024-02-05T08:06:22.066Z,24.86
2024-02-05T08:07:22.206Z,24.90
2024-02-05T08:08:22.080Z,24.92
2024-02-05T08:09:22.755Z,24.95
2024-02-05T08:10:22.329Z,24.97
2024-02-05T08:11:22.202Z,25.00
2024-02-05T08:12:22.260Z,25.02
2024-02-05T08:13:22.327Z,25.05
2024-02-05T08:14:22.899Z,25.06
2024-02-05T08:15:22.346Z,25.07
2024-02-05T08:16:22.454Z,25.10
2024-02-05T08:17:22.496Z,25.12
2024-02-05T08:18:22.500Z,25.13
2024-02-05T08:19:22.850Z,25.15
2024-02-05T08:20:22.510Z,25.16
2024-02-05T08:21:22.593Z,25.18
2024-02-05T08:22:22.688Z,25.21
2024-02-05T08:23:22.645Z,25.24
2024-02-05T08:24:22.645Z,25.24
2024-02-05T08:25:22.921Z,25.26
2024-02-05T08:26:22.696Z,25.27
2024-02-05T08:27:22.700Z,25.29
2024-02-05T08:28:22.908Z,25.32
2024-02-05T08:29:22.793Z,25.32
2024-02-05T08:30:22.766Z,25.30
2024-02-05T08:31:23.033Z,24.81
2024-02-05T08:32:22.866Z,23.95
2024-02-05T08:33:22.984Z,23.22
2024-02-05T08:34:23.442Z,22.68
2024-02-05T08:35:22.984Z,22.19
2024-02-05T08:36:22.997Z,21.74
2024-02-05T08:37:23.238Z,21.30
2024-02-05T08:38:23.057Z,20.83
2024-02-05T08:39:23.254Z,20.39
2024-02-05T08:40:23.256Z,20.08
2024-02-05T08:41:23.170Z,20.20
2024-02-05T08:42:31.824Z,20.56
2024-02-05T08:43:24.296Z,20.91
2024-02-05T08:44:23.187Z,21.24
2024-02-05T08:45:23.226Z,21.57
2024-02-05T08:46:23.233Z,21.86
2024-02-05T08:47:23.235Z,22.16
2024-02-05T08:48:23.380Z,22.42
2024-02-05T08:49:23.385Z,22.68
2024-02-05T08:50:23.218Z,22.95
2024-02-05T08:51:23.204Z,23.15
2024-02-05T08:52:23.292Z,23.35
2024-02-05T08:53:23.268Z,23.53
2024-02-05T08:54:23.216Z,23.69
2024-02-05T08:55:23.314Z,23.83
2024-02-05T08:56:23.313Z,23.96
2024-02-05T08:57:23.399Z,24.07
2024-02-05T08:58:23.378Z,24.19
2024-02-05T08:59:23.402Z,24.28
2024-02-05T09:00:23.400Z,24.36
2024-02-05T09:01:23.636Z,24.44
2024-02-05T09:02:23.756Z,24.51
2024-02-05T09:03:23.598Z,24.58
2024-02-05T09:04:23.629Z,24.63
2024-02-05T09:05:33.464Z,24.68
2024-02-05T09:06:24.655Z,24.73
2024-02-05T09:07:23.647Z,24.79
2024-02-05T09:08:23.596Z,24.84
2024-02-05T09:09:23.776Z,24.87
2024-02-05T09:10:23.635Z,24.91
2024-02-05T09:11:23.602Z,24.95
2024-02-05T09:12:23.596Z,24.99
2024-02-05T09:13:23.766Z,25.03
2024-02-05T09:14:23.615Z,25.06
2024-02-05T09:15:23.648Z,25.09
2024-02-05T09:16:23.692Z,25.11
2024-02-05T09:17:23.603Z,25.13
2024-02-05T09:18:23.721Z,25.15
2024-02-05T09:19:23.649Z,25.17
2024-02-05T09:20:23.663Z,25.19
2024-02-05T09:21:24.294Z,25.22
2024-02-05T09:22:23.719Z,25.25
2024-02-05T09:23:23.698Z,25.25
2024-02-05T09:24:23.713Z,25.26
2024-02-05T09:25:23.820Z,25.27
2024-02-05T09:26:23.810Z,25.28
2024-02-05T09:27:23.783Z,25.28
2024-02-05T09:28:23.913Z,25.29
2024-02-05T09:29:24.295Z,25.30
2024-02-05T09:30:23.928Z,25.30
2024-02-05T09:31:24.027Z,25.31
2024-02-05T09:32:23.889Z,25.31
2024-02-05T09:33:23.971Z,25.25
2024-02-05T09:34:24.111Z,25.10
2024-02-05T09:35:24.064Z,25.01
2024-02-05T09:36:24.060Z,24.89
2024-02-05T09:37:24.209Z,24.78
2024-02-05T09:38:24.135Z,24.72
2024-02-05T09:39:24.289Z,24.69
2024-02-05T09:40:24.248Z,24.56
2024-02-05T09:41:24.224Z,24.44
2024-02-05T09:42:24.272Z,24.35
2024-02-05T09:43:24.344Z,24.28
2024-02-05T09:44:24.326Z,24.23
2024-02-05T09:45:24.329Z,24.24
2024-02-05T09:46:24.461Z,24.26
2024-02-05T09:47:24.422Z,24.24
2024-02-05T09:48:30.650Z,24.24
2024-02-05T09:49:25.999Z,24.23
2024-02-05T09:50:24.673Z,24.12
2024-02-05T09:51:24.429Z,23.97
2024-02-05T09:52:24.513Z,23.79
2024-02-05T09:53:24.454Z,23.75
2024-02-05T09:54:24.416Z,23.70
2024-02-05T09:55:25.288Z,23.61
2024-02-05T09:56:24.433Z,23.63
2024-02-05T09:57:24.447Z,23.68
2024-02-05T09:58:24.442Z,23.75
2024-02-05T09:59:24.423Z,23.82
2024-02-05T10:00:24.421Z,23.90
2024-02-05T10:01:24.524Z,23.98
2024-02-05T10:02:24.445Z,24.06
2024-02-05T10:03:24.584Z,24.13
2024-02-05T10:04:24.615Z,24.18
2024-02-05T10:05:24.581Z,24.24
2024-02-05T10:06:24.611Z,24.24
2024-02-05T10:07:24.736Z,24.17
2024-02-05T10:08:24.697Z,24.16
2024-02-05T10:09:24.753Z,24.00
2024-02-05T10:10:24.760Z,23.76
2024-02-05T10:11:24.895Z,23.45
2024-02-05T10:12:24.824Z,23.21
2024-02-05T10:13:24.891Z,23.15
2024-02-05T10:14:27.729Z,23.19
2024-02-05T10:15:24.900Z,23.27
2024-02-05T10:16:24.949Z,23.37
2024-02-05T10:17:24.855Z,23.46
2024-02-05T10:18:25.070Z,23.55
2024-02-05T10:19:24.915Z,23.61
2024-02-05T10:20:24.891Z,23.67
2024-02-05T10:21:24.882Z,23.74
2024-02-05T10:22:24.914Z,23.79
2024-02-05T10:23:27.861Z,23.84
2024-02-05T10:24:24.889Z,23.89
2024-02-05T10:25:25.005Z,23.94
2024-02-05T10:26:24.955Z,23.99
2024-02-05T10:27:24.930Z,24.04
2024-02-05T10:28:25.003Z,24.06
2024-02-05T10:29:24.902Z,24.10
2024-02-05T10:30:24.914Z,24.12
2024-02-05T10:31:25.096Z,24.16
2024-02-05T10:32:24.963Z,24.20
2024-02-05T10:33:24.918Z,24.23
2024-02-05T10:34:25.069Z,24.26
2024-02-05T10:35:24.905Z,24.28
2024-02-05T10:36:24.910Z,24.31
2024-02-05T10:37:25.061Z,24.33
2024-02-05T10:38:24.914Z,24.36
2024-02-05T10:39:25.384Z,24.39
2024-02-05T10:40:25.044Z,24.41
2024-02-05T10:41:24.887Z,24.26
2024-02-05T10:42:24.921Z,23.88
2024-02-05T10:43:24.962Z,23.41
2024-02-05T10:44:33.850Z,23.03
2024-02-05T10:45:26.352Z,22.74
2024-02-05T10:46:25.005Z,22.48
2024-02-05T10:47:24.887Z,22.08
2024-02-05T10:48:25.004Z,21.96
2024-02-05T10:49:25.896Z,22.06
2024-02-05T10:50:24.956Z,22.25
2024-02-05T10:51:24.932Z,22.46
2024-02-05T10:52:25.005Z,22.67
2024-02-05T10:53:24.955Z,22.88
2024-02-05T10:54:24.913Z,23.07
2024-02-05T10:55:24.961Z,23.29
2024-02-05T10:56:24.930Z,23.47
2024-02-05T10:57:25.423Z,23.63
2024-02-05T10:58:25.089Z,23.76
2024-02-05T10:59:25.077Z,23.89
2024-02-05T11:00:25.320Z,24.02
2024-02-05T11:01:25.227Z,24.15
2024-02-05T11:02:25.096Z,24.26
2024-02-05T11:03:25.131Z,24.37
2024-02-05T11:04:25.205Z,24.45
2024-02-05T11:05:25.468Z,24.50
2024-02-05T11:06:25.299Z,24.58
2024-02-05T11:07:25.336Z,24.63
2024-02-05T11:08:25.355Z,24.66
2024-02-05T11:09:25.383Z,24.72
2024-02-05T11:10:25.434Z,24.78
2024-02-05T11:11:25.292Z,24.83
2024-02-05T11:12:25.325Z,24.89
2024-02-05T11:13:25.468Z,24.93
2024-02-05T11:14:25.577Z,24.98
2024-02-05T11:15:25.608Z,25.01
2024-02-05T11:16:25.626Z,25.05
2024-02-05T11:17:25.704Z,25.11
2024-02-05T11:18:25.632Z,25.16
2024-02-05T11:19:25.805Z,25.23
2024-02-05T11:20:25.748Z,25.26
2024-02-05T11:21:25.796Z,25.28
2024-02-05T11:22:25.932Z,25.31
2024-02-05T11:23:25.920Z,25.32
2024-02-05T11:24:25.917Z,25.33
2024-02-05T11:25:27.012Z,25.36
2024-02-05T11:26:26.042Z,25.39
2024-02-05T11:27:26.047Z,25.42
2024-02-05T11:28:26.937Z,25.44
2024-02-05T11:29:26.164Z,25.46
2024-02-05T11:30:26.183Z,25.49
2024-02-05T11:31:26.314Z,25.51
2024-02-05T11:32:26.250Z,25.52
2024-02-05T11:33:26.299Z,25.55
2024-02-05T11:34:26.535Z,25.56
2024-02-05T11:35:26.945Z,25.56
2024-02-05T11:36:26.483Z,25.45
2024-02-05T11:37:26.641Z,25.29
2024-02-05T11:38:26.559Z,24.91
2024-02-05T11:39:26.570Z,24.57
2024-02-05T11:40:27.618Z,24.35
2024-02-05T11:41:26.632Z,24.18
2024-02-05T11:42:26.705Z,24.04
2024-02-05T11:43:27.083Z,24.04
2024-02-05T11:44:26.791Z,24.03
2024-02-05T11:45:26.893Z,23.99
2024-02-05T11:46:26.924Z,24.02
2024-02-05T11:47:26.959Z,24.05
2024-02-05T11:48:27.072Z,24.12
2024-02-05T11:49:27.092Z,24.18
2024-02-05T11:50:27.078Z,24.26
2024-02-05T11:51:27.801Z,24.32
2024-02-05T11:52:27.285Z,24.39
2024-02-05T11:53:27.205Z,24.44
2024-02-05T11:54:27.251Z,24.50
2024-02-05T11:55:27.307Z,24.56
2024-02-05T11:56:27.279Z,24.60
2024-02-05T11:57:27.335Z,24.64
2024-02-05T11:58:27.513Z,24.65
2024-02-05T11:59:27.335Z,24.68
2024-02-05T12:00:27.505Z,24.72
2024-02-05T12:01:28.004Z,24.76
2024-02-05T12:02:27.408Z,24.80
2024-02-05T12:03:27.437Z,24.84
2024-02-05T12:04:27.518Z,24.88
2024-02-05T12:05:27.552Z,24.91
2024-02-05T12:06:27.565Z,24.95
2024-02-05T12:07:27.628Z,24.98
2024-02-05T12:08:27.699Z,24.98
2024-02-05T12:09:27.777Z,25.00
2024-02-05T12:10:27.802Z,24.96
2024-02-05T12:11:27.956Z,24.95
2024-02-05T12:12:27.697Z,24.93
2024-02-05T12:13:27.823Z,24.94
2024-02-05T12:14:27.816Z,24.97
2024-02-05T12:15:27.808Z,24.99
2024-02-05T12:16:28.045Z,24.98
2024-02-05T12:17:27.863Z,24.98
2024-02-05T12:18:28.042Z,24.99
2024-02-05T12:19:27.976Z,25.02
2024-02-05T12:20:28.164Z,25.06
2024-02-05T12:21:28.133Z,25.09
2024-02-05T12:22:28.239Z,25.12
2024-02-05T12:23:28.133Z,25.16
2024-02-05T12:24:28.139Z,25.17
2024-02-05T12:25:35.545Z,25.21
2024-02-05T12:26:29.457Z,25.22
2024-02-05T12:27:28.258Z,25.23
2024-02-05T12:28:28.321Z,25.25
2024-02-05T12:29:28.274Z,25.26
2024-02-05T12:30:28.343Z,25.28
2024-02-05T12:31:28.470Z,25.26
2024-02-05T12:32:35.591Z,25.24
2024-02-05T12:33:29.339Z,25.23
2024-02-05T12:34:28.436Z,25.23
2024-02-05T12:35:28.382Z,25.23
2024-02-05T12:36:28.388Z,25.24
2024-02-05T12:37:28.292Z,25.25
2024-02-05T12:38:31.349Z,25.25
2024-02-05T12:39:28.239Z,25.26
2024-02-05T12:40:28.435Z,25.28
2024-02-05T12:41:28.235Z,25.29
2024-02-05T12:42:28.238Z,25.29
2024-02-05T12:43:28.352Z,25.30
2024-02-05T12:44:34.262Z,25.30
2024-02-05T12:45:29.278Z,25.31
2024-02-05T12:46:28.376Z,25.31
2024-02-05T12:47:28.241Z,25.33
2024-02-05T12:48:28.437Z,25.34
2024-02-05T12:49:28.333Z,25.34
2024-02-05T12:50:30.068Z,25.35
2024-02-05T12:51:28.270Z,25.35
2024-02-05T12:52:28.405Z,25.36
2024-02-05T12:53:28.284Z,25.36